sensor_id;sensor_type;location;lat;lon;timestamp;temperature;humidity
32394;DHT22;18853;45.426;9.206;2023-04-30T00:01:39;23.20;54.30
32394;DHT22;18853;45.426;9.206;2023-04-30T00:04:04;23.20;54.40
32394;DHT22;18853;45.426;9.206;2023-04-30T00:06:30;23.10;54.40
32394;DHT22;18853;45.426;9.206;2023-04-30T00:08:56;23.20;54.40
32394;DHT22;18853;45.426;9.206;2023-04-30T00:11:22;23.10;54.40
32394;DHT22;18853;45.426;9.206;2023-04-30T00:13:48;23.10;54.40
32394;DHT22;18853;45.426;9.206;2023-04-30T00:16:13;23.20;54.50
32394;DHT22;18853;45.426;9.206;2023-04-30T00:18:39;23.10;54.50
32394;DHT22;18853;45.426;9.206;2023-04-30T00:21:05;23.10;54.60
32394;DHT22;18853;45.426;9.206;2023-04-30T00:23:30;23.10;54.70
32394;DHT22;18853;45.426;9.206;2023-04-30T00:25:56;23.00;54.70
32394;DHT22;18853;45.426;9.206;2023-04-30T00:28:22;23.10;54.70
32394;DHT22;18853;45.426;9.206;2023-04-30T00:30:48;23.00;54.70
32394;DHT22;18853;45.426;9.206;2023-04-30T00:33:13;23.00;54.80
32394;DHT22;18853;45.426;9.206;2023-04-30T00:35:39;23.00;54.80
32394;DHT22;18853;45.426;9.206;2023-04-30T00:38:06;23.00;54.70
32394;DHT22;18853;45.426;9.206;2023-04-30T00:40:36;23.00;54.70
32394;DHT22;18853;45.426;9.206;2023-04-30T00:43:02;23.00;54.80
32394;DHT22;18853;45.426;9.206;2023-04-30T00:45:27;23.00;54.80
32394;DHT22;18853;45.426;9.206;2023-04-30T00:47:53;23.00;54.90
32394;DHT22;18853;45.426;9.206;2023-04-30T00:50:19;23.00;54.90
32394;DHT22;18853;45.426;9.206;2023-04-30T00:52:45;23.00;54.90
32394;DHT22;18853;45.426;9.206;2023-04-30T00:55:11;23.00;55.40
32394;DHT22;18853;45.426;9.206;2023-04-30T00:57:38;23.00;54.90
32394;DHT22;18853;45.426;9.206;2023-04-30T01:00:05;23.00;54.90
32394;DHT22;18853;45.426;9.206;2023-04-30T01:02:34;23.00;54.90
32394;DHT22;18853;45.426;9.206;2023-04-30T01:05:01;22.90;54.90
32394;DHT22;18853;45.426;9.206;2023-04-30T01:07:28;22.90;55.00
32394;DHT22;18853;45.426;9.206;2023-04-30T01:09:54;22.90;55.00
32394;DHT22;18853;45.426;9.206;2023-04-30T01:18:07;22.90;55.10
32394;DHT22;18853;45.426;9.206;2023-04-30T01:20:39;22.90;54.90
32394;DHT22;18853;45.426;9.206;2023-04-30T01:24:14;22.80;55.10
32394;DHT22;18853;45.426;9.206;2023-04-30T01:28:46;22.80;55.20
32394;DHT22;18853;45.426;9.206;2023-04-30T01:31:17;22.80;55.20
32394;DHT22;18853;45.426;9.206;2023-04-30T01:33:42;22.80;55.30
32394;DHT22;18853;45.426;9.206;2023-04-30T01:38:55;22.80;55.30
32394;DHT22;18853;45.426;9.206;2023-04-30T01:46:29;22.70;55.20
32394;DHT22;18853;45.426;9.206;2023-04-30T01:49:10;22.70;55.20
32394;DHT22;18853;45.426;9.206;2023-04-30T01:51:42;22.70;55.20
32394;DHT22;18853;45.426;9.206;2023-04-30T01:54:20;22.60;55.40
32394;DHT22;18853;45.426;9.206;2023-04-30T01:59:24;22.70;55.40
32394;DHT22;18853;45.426;9.206;2023-04-30T02:01:49;22.60;55.30
32394;DHT22;18853;45.426;9.206;2023-04-30T02:04:15;22.60;55.30
32394;DHT22;18853;45.426;9.206;2023-04-30T02:06:41;22.60;55.40
32394;DHT22;18853;45.426;9.206;2023-04-30T02:09:06;22.70;55.40
32394;DHT22;18853;45.426;9.206;2023-04-30T02:11:32;22.70;55.40
32394;DHT22;18853;45.426;9.206;2023-04-30T02:13:58;22.60;55.40
32394;DHT22;18853;45.426;9.206;2023-04-30T02:16:23;22.60;55.50
32394;DHT22;18853;45.426;9.206;2023-04-30T02:18:49;22.60;55.50
32394;DHT22;18853;45.426;9.206;2023-04-30T02:21:15;22.60;55.40
32394;DHT22;18853;45.426;9.206;2023-04-30T02:23:40;22.60;55.50
32394;DHT22;18853;45.426;9.206;2023-04-30T02:26:06;22.60;55.50
32394;DHT22;18853;45.426;9.206;2023-04-30T02:28:32;22.60;55.50
32394;DHT22;18853;45.426;9.206;2023-04-30T02:30:58;22.60;55.60
32394;DHT22;18853;45.426;9.206;2023-04-30T02:33:23;22.60;55.70
32394;DHT22;18853;45.426;9.206;2023-04-30T02:35:49;22.60;55.70
32394;DHT22;18853;45.426;9.206;2023-04-30T02:38:15;22.60;55.50
32394;DHT22;18853;45.426;9.206;2023-04-30T02:40:41;22.60;55.60
32394;DHT22;18853;45.426;9.206;2023-04-30T02:43:09;22.60;55.60
32394;DHT22;18853;45.426;9.206;2023-04-30T02:45:35;22.50;55.50
32394;DHT22;18853;45.426;9.206;2023-04-30T02:48:01;22.50;55.60
32394;DHT22;18853;45.426;9.206;2023-04-30T02:50:27;22.50;55.70
32394;DHT22;18853;45.426;9.206;2023-04-30T02:52:52;22.50;55.70
32394;DHT22;18853;45.426;9.206;2023-04-30T02:55:18;22.50;55.70
32394;DHT22;18853;45.426;9.206;2023-04-30T02:57:43;22.50;55.70
32394;DHT22;18853;45.426;9.206;2023-04-30T03:00:10;22.50;55.70
32394;DHT22;18853;45.426;9.206;2023-04-30T03:02:36;22.50;55.80
32394;DHT22;18853;45.426;9.206;2023-04-30T03:05:03;22.50;55.80
32394;DHT22;18853;45.426;9.206;2023-04-30T03:07:29;22.50;55.80
32394;DHT22;18853;45.426;9.206;2023-04-30T03:09:54;22.50;55.90
32394;DHT22;18853;45.426;9.206;2023-04-30T03:12:20;22.50;55.80
32394;DHT22;18853;45.426;9.206;2023-04-30T03:14:46;22.50;55.90
32394;DHT22;18853;45.426;9.206;2023-04-30T03:17:11;22.50;55.90
32394;DHT22;18853;45.426;9.206;2023-04-30T03:19:37;22.40;56.00
32394;DHT22;18853;45.426;9.206;2023-04-30T03:22:03;22.40;56.10
32394;DHT22;18853;45.426;9.206;2023-04-30T03:24:28;22.40;56.10
32394;DHT22;18853;45.426;9.206;2023-04-30T03:26:54;22.40;56.10
32394;DHT22;18853;45.426;9.206;2023-04-30T03:29:20;22.40;56.10
32394;DHT22;18853;45.426;9.206;2023-04-30T03:31:46;22.40;56.10
32394;DHT22;18853;45.426;9.206;2023-04-30T03:34:11;22.40;56.10
32394;DHT22;18853;45.426;9.206;2023-04-30T03:36:37;22.40;56.10
32394;DHT22;18853;45.426;9.206;2023-04-30T03:39:03;22.40;56.10
32394;DHT22;18853;45.426;9.206;2023-04-30T03:41:29;22.40;56.70
32394;DHT22;18853;45.426;9.206;2023-04-30T03:43:55;22.40;56.00
32394;DHT22;18853;45.426;9.206;2023-04-30T03:46:20;22.40;56.00
32394;DHT22;18853;45.426;9.206;2023-04-30T03:48:46;22.30;56.00
32394;DHT22;18853;45.426;9.206;2023-04-30T03:51:11;22.30;56.00
32394;DHT22;18853;45.426;9.206;2023-04-30T03:53:37;22.30;56.20
32394;DHT22;18853;45.426;9.206;2023-04-30T03:56:04;22.20;56.20
32394;DHT22;18853;45.426;9.206;2023-04-30T03:58:29;22.20;56.20
32394;DHT22;18853;45.426;9.206;2023-04-30T04:00:55;22.20;56.20
32394;DHT22;18853;45.426;9.206;2023-04-30T04:03:21;22.20;56.30
32394;DHT22;18853;45.426;9.206;2023-04-30T04:05:47;22.20;56.10
32394;DHT22;18853;45.426;9.206;2023-04-30T04:08:13;22.30;56.30
32394;DHT22;18853;45.426;9.206;2023-04-30T04:10:39;22.30;56.30
32394;DHT22;18853;45.426;9.206;2023-04-30T04:13:05;22.20;56.50
32394;DHT22;18853;45.426;9.206;2023-04-30T04:15:32;22.30;56.30
32394;DHT22;18853;45.426;9.206;2023-04-30T04:17:58;22.20;56.30
32394;DHT22;18853;45.426;9.206;2023-04-30T04:20:23;22.30;56.30
32394;DHT22;18853;45.426;9.206;2023-04-30T04:22:49;22.20;56.30
32394;DHT22;18853;45.426;9.206;2023-04-30T04:25:15;22.20;56.20
32394;DHT22;18853;45.426;9.206;2023-04-30T04:27:42;22.30;56.20
32394;DHT22;18853;45.426;9.206;2023-04-30T04:30:08;22.30;56.30
32394;DHT22;18853;45.426;9.206;2023-04-30T04:32:34;22.30;56.10
32394;DHT22;18853;45.426;9.206;2023-04-30T04:35:06;22.30;56.10
32394;DHT22;18853;45.426;9.206;2023-04-30T04:37:33;22.40;56.10
32394;DHT22;18853;45.426;9.206;2023-04-30T04:39:59;22.40;56.00
32394;DHT22;18853;45.426;9.206;2023-04-30T04:42:25;22.40;56.00
32394;DHT22;18853;45.426;9.206;2023-04-30T04:44:51;22.40;56.00
32394;DHT22;18853;45.426;9.206;2023-04-30T04:47:17;22.40;56.00
32394;DHT22;18853;45.426;9.206;2023-04-30T04:49:46;22.30;56.10
32394;DHT22;18853;45.426;9.206;2023-04-30T04:52:11;22.40;56.10
32394;DHT22;18853;45.426;9.206;2023-04-30T04:54:37;22.30;56.20
32394;DHT22;18853;45.426;9.206;2023-04-30T04:57:03;22.30;56.30
32394;DHT22;18853;45.426;9.206;2023-04-30T04:59:28;22.30;56.40
32394;DHT22;18853;45.426;9.206;2023-04-30T05:01:54;22.30;56.30
32394;DHT22;18853;45.426;9.206;2023-04-30T05:04:20;22.30;56.30
32394;DHT22;18853;45.426;9.206;2023-04-30T05:06:46;22.30;56.30
32394;DHT22;18853;45.426;9.206;2023-04-30T05:09:12;22.30;56.30
32394;DHT22;18853;45.426;9.206;2023-04-30T05:11:38;22.30;56.30
32394;DHT22;18853;45.426;9.206;2023-04-30T05:14:06;22.30;56.50
32394;DHT22;18853;45.426;9.206;2023-04-30T05:16:31;22.20;56.50
32394;DHT22;18853;45.426;9.206;2023-04-30T05:18:57;22.20;56.60
32394;DHT22;18853;45.426;9.206;2023-04-30T05:21:23;22.30;56.50
32394;DHT22;18853;45.426;9.206;2023-04-30T05:23:50;22.30;56.30
32394;DHT22;18853;45.426;9.206;2023-04-30T05:26:16;22.30;56.00
32394;DHT22;18853;45.426;9.206;2023-04-30T05:28:41;22.30;55.70
32394;DHT22;18853;45.426;9.206;2023-04-30T05:31:07;22.30;55.70
32394;DHT22;18853;45.426;9.206;2023-04-30T05:33:33;22.30;55.60
32394;DHT22;18853;45.426;9.206;2023-04-30T05:35:59;22.30;55.70
32394;DHT22;18853;45.426;9.206;2023-04-30T05:38:24;22.30;55.70
32394;DHT22;18853;45.426;9.206;2023-04-30T05:40:50;22.30;55.50
32394;DHT22;18853;45.426;9.206;2023-04-30T05:43:16;22.20;55.40
32394;DHT22;18853;45.426;9.206;2023-04-30T05:45:42;22.20;55.50
32394;DHT22;18853;45.426;9.206;2023-04-30T05:48:07;22.10;55.70
32394;DHT22;18853;45.426;9.206;2023-04-30T05:50:33;22.20;55.60
32394;DHT22;18853;45.426;9.206;2023-04-30T05:52:59;22.20;55.40
32394;DHT22;18853;45.426;9.206;2023-04-30T05:55:25;22.20;55.30
32394;DHT22;18853;45.426;9.206;2023-04-30T05:57:50;22.20;55.30
32394;DHT22;18853;45.426;9.206;2023-04-30T06:00:16;22.20;55.60
32394;DHT22;18853;45.426;9.206;2023-04-30T06:02:42;22.20;55.40
32394;DHT22;18853;45.426;9.206;2023-04-30T06:05:08;22.30;55.50
32394;DHT22;18853;45.426;9.206;2023-04-30T06:07:34;22.30;55.30
32394;DHT22;18853;45.426;9.206;2023-04-30T06:10:00;22.30;55.10
32394;DHT22;18853;45.426;9.206;2023-04-30T06:12:25;22.30;55.20
32394;DHT22;18853;45.426;9.206;2023-04-30T06:14:51;22.30;55.30
32394;DHT22;18853;45.426;9.206;2023-04-30T06:17:17;22.30;55.40
32394;DHT22;18853;45.426;9.206;2023-04-30T06:19:43;22.20;55.30
32394;DHT22;18853;45.426;9.206;2023-04-30T06:22:08;22.20;55.20
32394;DHT22;18853;45.426;9.206;2023-04-30T06:24:34;22.30;55.10
32394;DHT22;18853;45.426;9.206;2023-04-30T06:27:00;22.30;55.10
32394;DHT22;18853;45.426;9.206;2023-04-30T06:29:25;22.40;55.10
32394;DHT22;18853;45.426;9.206;2023-04-30T06:31:51;22.50;55.20
32394;DHT22;18853;45.426;9.206;2023-04-30T06:34:18;22.50;55.10
32394;DHT22;18853;45.426;9.206;2023-04-30T06:36:44;22.50;55.10
32394;DHT22;18853;45.426;9.206;2023-04-30T06:39:11;22.50;55.10
32394;DHT22;18853;45.426;9.206;2023-04-30T06:41:37;22.50;55.00
32394;DHT22;18853;45.426;9.206;2023-04-30T06:44:03;22.50;54.90
32394;DHT22;18853;45.426;9.206;2023-04-30T06:46:29;22.60;54.80
32394;DHT22;18853;45.426;9.206;2023-04-30T06:48:54;22.60;54.90
32394;DHT22;18853;45.426;9.206;2023-04-30T06:51:20;22.60;55.00
32394;DHT22;18853;45.426;9.206;2023-04-30T06:53:46;22.60;55.00
32394;DHT22;18853;45.426;9.206;2023-04-30T06:56:11;22.70;55.00
32394;DHT22;18853;45.426;9.206;2023-04-30T06:58:37;22.70;55.00
32394;DHT22;18853;45.426;9.206;2023-04-30T07:01:03;22.60;54.90
32394;DHT22;18853;45.426;9.206;2023-04-30T07:03:28;22.70;54.60
32394;DHT22;18853;45.426;9.206;2023-04-30T07:05:54;22.70;54.70
32394;DHT22;18853;45.426;9.206;2023-04-30T07:08:20;22.60;54.40
32394;DHT22;18853;45.426;9.206;2023-04-30T07:10:46;22.70;54.10
32394;DHT22;18853;45.426;9.206;2023-04-30T07:13:12;22.70;54.00
32394;DHT22;18853;45.426;9.206;2023-04-30T07:15:37;22.70;54.00
32394;DHT22;18853;45.426;9.206;2023-04-30T07:18:03;22.70;53.60
32394;DHT22;18853;45.426;9.206;2023-04-30T07:20:29;22.60;53.40
32394;DHT22;18853;45.426;9.206;2023-04-30T07:22:55;22.60;53.50
32394;DHT22;18853;45.426;9.206;2023-04-30T07:25:20;22.70;53.40
32394;DHT22;18853;45.426;9.206;2023-04-30T07:27:46;22.60;53.50
32394;DHT22;18853;45.426;9.206;2023-04-30T07:30:12;22.70;53.80
32394;DHT22;18853;45.426;9.206;2023-04-30T07:32:38;22.80;54.10
32394;DHT22;18853;45.426;9.206;2023-04-30T07:35:06;22.90;55.10
32394;DHT22;18853;45.426;9.206;2023-04-30T07:37:32;23.00;54.20
32394;DHT22;18853;45.426;9.206;2023-04-30T07:39:57;23.00;53.50
32394;DHT22;18853;45.426;9.206;2023-04-30T07:42:23;23.00;53.30
32394;DHT22;18853;45.426;9.206;2023-04-30T07:44:49;23.10;52.70
32394;DHT22;18853;45.426;9.206;2023-04-30T07:47:14;23.10;51.60
32394;DHT22;18853;45.426;9.206;2023-04-30T07:49:40;23.20;51.30
32394;DHT22;18853;45.426;9.206;2023-04-30T07:52:06;23.20;50.00
32394;DHT22;18853;45.426;9.206;2023-04-30T07:54:35;23.20;50.50
32394;DHT22;18853;45.426;9.206;2023-04-30T07:57:03;23.30;50.70
32394;DHT22;18853;45.426;9.206;2023-04-30T07:59:30;23.30;51.20
32394;DHT22;18853;45.426;9.206;2023-04-30T08:01:55;23.30;50.70
32394;DHT22;18853;45.426;9.206;2023-04-30T08:04:21;23.30;50.30
32394;DHT22;18853;45.426;9.206;2023-04-30T08:06:47;23.40;50.20
32394;DHT22;18853;45.426;9.206;2023-04-30T08:09:12;23.40;50.50
32394;DHT22;18853;45.426;9.206;2023-04-30T08:11:40;23.40;50.20
32394;DHT22;18853;45.426;9.206;2023-04-30T08:14:06;23.40;50.10
32394;DHT22;18853;45.426;9.206;2023-04-30T08:16:31;23.50;49.80
32394;DHT22;18853;45.426;9.206;2023-04-30T08:18:57;23.40;49.30
32394;DHT22;18853;45.426;9.206;2023-04-30T08:21:23;23.40;49.10
32394;DHT22;18853;45.426;9.206;2023-04-30T08:23:49;23.40;49.90
32394;DHT22;18853;45.426;9.206;2023-04-30T08:26:16;23.40;50.40
32394;DHT22;18853;45.426;9.206;2023-04-30T08:28:41;23.40;50.00
32394;DHT22;18853;45.426;9.206;2023-04-30T08:31:07;23.40;49.90
32394;DHT22;18853;45.426;9.206;2023-04-30T08:33:33;23.40;49.20
32394;DHT22;18853;45.426;9.206;2023-04-30T08:35:58;23.40;49.10
32394;DHT22;18853;45.426;9.206;2023-04-30T08:38:24;23.40;49.00
32394;DHT22;18853;45.426;9.206;2023-04-30T08:41:12;23.40;48.60
32394;DHT22;18853;45.426;9.206;2023-04-30T08:43:39;23.50;47.80
32394;DHT22;18853;45.426;9.206;2023-04-30T08:46:05;23.40;48.00
32394;DHT22;18853;45.426;9.206;2023-04-30T08:48:32;23.40;47.60
32394;DHT22;18853;45.426;9.206;2023-04-30T08:51:01;23.50;47.60
32394;DHT22;18853;45.426;9.206;2023-04-30T08:53:29;23.50;47.60
32394;DHT22;18853;45.426;9.206;2023-04-30T08:55:56;23.50;47.70
32394;DHT22;18853;45.426;9.206;2023-04-30T08:58:22;23.40;47.30
32394;DHT22;18853;45.426;9.206;2023-04-30T09:00:48;23.40;46.80
32394;DHT22;18853;45.426;9.206;2023-04-30T09:03:13;23.30;46.90
32394;DHT22;18853;45.426;9.206;2023-04-30T09:05:39;23.30;47.00
32394;DHT22;18853;45.426;9.206;2023-04-30T09:08:07;23.40;47.00
32394;DHT22;18853;45.426;9.206;2023-04-30T09:10:35;23.50;47.10
32394;DHT22;18853;45.426;9.206;2023-04-30T09:13:07;23.60;46.90
32394;DHT22;18853;45.426;9.206;2023-04-30T09:15:34;23.60;46.80
32394;DHT22;18853;45.426;9.206;2023-04-30T09:20:38;23.60;46.80
32394;DHT22;18853;45.426;9.206;2023-04-30T09:23:17;23.60;46.40
32394;DHT22;18853;45.426;9.206;2023-04-30T09:25:43;23.60;46.20
32394;DHT22;18853;45.426;9.206;2023-04-30T09:28:10;23.60;46.20
32394;DHT22;18853;45.426;9.206;2023-04-30T09:30:36;23.60;47.40
32394;DHT22;18853;45.426;9.206;2023-04-30T09:33:02;23.70;47.50
32394;DHT22;18853;45.426;9.206;2023-04-30T09:35:33;23.80;46.70
32394;DHT22;18853;45.426;9.206;2023-04-30T09:38:00;23.90;47.60
32394;DHT22;18853;45.426;9.206;2023-04-30T09:40:34;23.90;47.60
32394;DHT22;18853;45.426;9.206;2023-04-30T09:43:00;24.00;46.60
32394;DHT22;18853;45.426;9.206;2023-04-30T09:45:26;23.90;46.30
32394;DHT22;18853;45.426;9.206;2023-04-30T09:48:03;23.90;46.90
32394;DHT22;18853;45.426;9.206;2023-04-30T09:50:36;23.80;46.60
32394;DHT22;18853;45.426;9.206;2023-04-30T09:53:07;23.90;47.30
32394;DHT22;18853;45.426;9.206;2023-04-30T09:55:34;23.80;47.00
32394;DHT22;18853;45.426;9.206;2023-04-30T09:58:07;23.90;47.20
32394;DHT22;18853;45.426;9.206;2023-04-30T10:00:34;23.90;47.00
32394;DHT22;18853;45.426;9.206;2023-04-30T10:03:06;24.00;47.10
32394;DHT22;18853;45.426;9.206;2023-04-30T10:05:44;24.10;46.60
32394;DHT22;18853;45.426;9.206;2023-04-30T10:08:41;24.10;46.80
32394;DHT22;18853;45.426;9.206;2023-04-30T10:11:08;24.20;46.40
32394;DHT22;18853;45.426;9.206;2023-04-30T10:14:02;24.20;46.70
32394;DHT22;18853;45.426;9.206;2023-04-30T10:16:46;24.30;46.50
32394;DHT22;18853;45.426;9.206;2023-04-30T10:19:33;24.30;46.80
32394;DHT22;18853;45.426;9.206;2023-04-30T10:21:59;24.30;46.70
32394;DHT22;18853;45.426;9.206;2023-04-30T10:24:26;24.30;46.40
32394;DHT22;18853;45.426;9.206;2023-04-30T10:26:53;24.40;46.50
32394;DHT22;18853;45.426;9.206;2023-04-30T10:29:19;24.40;46.50
32394;DHT22;18853;45.426;9.206;2023-04-30T10:31:50;24.40;46.40
32394;DHT22;18853;45.426;9.206;2023-04-30T10:37:30;24.50;46.60
32394;DHT22;18853;45.426;9.206;2023-04-30T10:39:59;24.60;46.40
32394;DHT22;18853;45.426;9.206;2023-04-30T10:42:26;24.50;47.30
32394;DHT22;18853;45.426;9.206;2023-04-30T10:44:52;24.60;46.60
32394;DHT22;18853;45.426;9.206;2023-04-30T10:47:18;24.60;46.60
32394;DHT22;18853;45.426;9.206;2023-04-30T10:49:45;24.60;46.70
32394;DHT22;18853;45.426;9.206;2023-04-30T10:52:12;24.60;47.00
32394;DHT22;18853;45.426;9.206;2023-04-30T10:54:39;24.60;47.10
32394;DHT22;18853;45.426;9.206;2023-04-30T10:57:15;24.50;47.00
32394;DHT22;18853;45.426;9.206;2023-04-30T10:59:49;24.40;47.40
32394;DHT22;18853;45.426;9.206;2023-04-30T11:02:15;24.40;47.50
32394;DHT22;18853;45.426;9.206;2023-04-30T11:05:19;24.40;47.50
32394;DHT22;18853;45.426;9.206;2023-04-30T11:08:04;24.50;47.60
32394;DHT22;18853;45.426;9.206;2023-04-30T11:10:35;24.40;47.70
32394;DHT22;18853;45.426;9.206;2023-04-30T11:13:06;24.40;47.80
32394;DHT22;18853;45.426;9.206;2023-04-30T11:15:44;24.50;48.10
32394;DHT22;18853;45.426;9.206;2023-04-30T11:18:12;24.50;48.10
32394;DHT22;18853;45.426;9.206;2023-04-30T11:20:48;24.40;47.40
32394;DHT22;18853;45.426;9.206;2023-04-30T11:23:16;24.40;47.70
32394;DHT22;18853;45.426;9.206;2023-04-30T11:25:47;24.40;47.90
32394;DHT22;18853;45.426;9.206;2023-04-30T11:28:32;24.40;48.00
32394;DHT22;18853;45.426;9.206;2023-04-30T11:31:00;24.50;47.90
32394;DHT22;18853;45.426;9.206;2023-04-30T11:33:28;24.40;47.90
32394;DHT22;18853;45.426;9.206;2023-04-30T11:35:55;24.30;47.90
32394;DHT22;18853;45.426;9.206;2023-04-30T11:38:29;24.30;48.20
32394;DHT22;18853;45.426;9.206;2023-04-30T11:40:57;24.40;48.20
32394;DHT22;18853;45.426;9.206;2023-04-30T11:43:28;24.40;48.10
32394;DHT22;18853;45.426;9.206;2023-04-30T11:46:20;24.40;48.30
32394;DHT22;18853;45.426;9.206;2023-04-30T11:48:46;24.40;48.30
32394;DHT22;18853;45.426;9.206;2023-04-30T11:51:16;24.40;48.30
32394;DHT22;18853;45.426;9.206;2023-04-30T11:53:46;24.50;48.50
32394;DHT22;18853;45.426;9.206;2023-04-30T11:56:12;24.60;48.00
32394;DHT22;18853;45.426;9.206;2023-04-30T11:58:38;24.60;48.10
32394;DHT22;18853;45.426;9.206;2023-04-30T12:01:06;24.70;48.50
32394;DHT22;18853;45.426;9.206;2023-04-30T12:03:44;24.70;47.50
32394;DHT22;18853;45.426;9.206;2023-04-30T12:06:12;24.70;48.00
32394;DHT22;18853;45.426;9.206;2023-04-30T12:08:47;24.70;48.60
32394;DHT22;18853;45.426;9.206;2023-04-30T12:11:21;24.70;47.40
32394;DHT22;18853;45.426;9.206;2023-04-30T12:13:59;24.70;49.60
32394;DHT22;18853;45.426;9.206;2023-04-30T12:16:44;24.70;48.90
32394;DHT22;18853;45.426;9.206;2023-04-30T12:19:11;24.70;48.30
32394;DHT22;18853;45.426;9.206;2023-04-30T12:21:37;24.60;49.50
32394;DHT22;18853;45.426;9.206;2023-04-30T12:24:05;24.70;49.40
32394;DHT22;18853;45.426;9.206;2023-04-30T12:26:38;24.70;48.90
32394;DHT22;18853;45.426;9.206;2023-04-30T12:29:17;24.80;48.60
32394;DHT22;18853;45.426;9.206;2023-04-30T12:31:44;24.80;47.30
32394;DHT22;18853;45.426;9.206;2023-04-30T12:34:13;24.70;48.30
32394;DHT22;18853;45.426;9.206;2023-04-30T12:36:40;24.70;48.20
32394;DHT22;18853;45.426;9.206;2023-04-30T12:39:11;24.80;47.80
32394;DHT22;18853;45.426;9.206;2023-04-30T12:41:42;24.80;47.50
32394;DHT22;18853;45.426;9.206;2023-04-30T12:44:21;24.80;47.60
32394;DHT22;18853;45.426;9.206;2023-04-30T12:46:49;24.80;47.20
32394;DHT22;18853;45.426;9.206;2023-04-30T12:49:28;24.70;47.50
32394;DHT22;18853;45.426;9.206;2023-04-30T12:52:01;24.70;47.30
32394;DHT22;18853;45.426;9.206;2023-04-30T12:54:28;24.70;47.40
32394;DHT22;18853;45.426;9.206;2023-04-30T12:59:30;24.70;48.00
32394;DHT22;18853;45.426;9.206;2023-04-30T13:02:06;24.70;48.30
32394;DHT22;18853;45.426;9.206;2023-04-30T13:04:33;24.70;47.70
32394;DHT22;18853;45.426;9.206;2023-04-30T13:06:59;24.70;47.60
32394;DHT22;18853;45.426;9.206;2023-04-30T13:09:24;24.80;47.60
32394;DHT22;18853;45.426;9.206;2023-04-30T13:11:50;24.80;47.10
32394;DHT22;18853;45.426;9.206;2023-04-30T13:14:17;24.80;47.30
32394;DHT22;18853;45.426;9.206;2023-04-30T13:16:42;24.90;47.20
32394;DHT22;18853;45.426;9.206;2023-04-30T13:19:08;25.00;47.00
32394;DHT22;18853;45.426;9.206;2023-04-30T13:21:34;25.00;47.10
32394;DHT22;18853;45.426;9.206;2023-04-30T13:24:00;25.10;47.30
32394;DHT22;18853;45.426;9.206;2023-04-30T13:26:26;25.10;46.90
32394;DHT22;18853;45.426;9.206;2023-04-30T13:28:53;25.20;47.00
32394;DHT22;18853;45.426;9.206;2023-04-30T13:31:19;25.20;46.30
32394;DHT22;18853;45.426;9.206;2023-04-30T13:33:45;25.30;46.70
32394;DHT22;18853;45.426;9.206;2023-04-30T13:36:11;25.40;46.70
32394;DHT22;18853;45.426;9.206;2023-04-30T13:38:36;25.60;46.70
32394;DHT22;18853;45.426;9.206;2023-04-30T13:41:04;25.60;45.90
32394;DHT22;18853;45.426;9.206;2023-04-30T13:43:30;25.60;46.00
32394;DHT22;18853;45.426;9.206;2023-04-30T13:45:56;25.60;46.40
32394;DHT22;18853;45.426;9.206;2023-04-30T13:48:23;25.70;45.50
32394;DHT22;18853;45.426;9.206;2023-04-30T13:50:51;25.70;45.10
32394;DHT22;18853;45.426;9.206;2023-04-30T13:53:17;25.60;45.90
32394;DHT22;18853;45.426;9.206;2023-04-30T13:55:43;25.60;46.70
32394;DHT22;18853;45.426;9.206;2023-04-30T13:58:09;25.60;45.60
32394;DHT22;18853;45.426;9.206;2023-04-30T14:00:34;25.60;45.80
32394;DHT22;18853;45.426;9.206;2023-04-30T14:03:00;25.50;45.70
32394;DHT22;18853;45.426;9.206;2023-04-30T14:05:26;25.50;46.60
32394;DHT22;18853;45.426;9.206;2023-04-30T14:07:52;25.40;45.80
32394;DHT22;18853;45.426;9.206;2023-04-30T14:10:18;25.50;46.40
32394;DHT22;18853;45.426;9.206;2023-04-30T14:12:43;25.50;47.00
32394;DHT22;18853;45.426;9.206;2023-04-30T14:15:10;25.60;47.30
32394;DHT22;18853;45.426;9.206;2023-04-30T14:17:35;25.60;46.50
32394;DHT22;18853;45.426;9.206;2023-04-30T14:20:02;25.50;47.10
32394;DHT22;18853;45.426;9.206;2023-04-30T14:22:28;25.50;47.10
32394;DHT22;18853;45.426;9.206;2023-04-30T14:24:54;25.50;47.50
32394;DHT22;18853;45.426;9.206;2023-04-30T14:27:20;25.50;47.50
32394;DHT22;18853;45.426;9.206;2023-04-30T14:29:46;25.60;46.80
32394;DHT22;18853;45.426;9.206;2023-04-30T14:32:12;25.50;46.30
32394;DHT22;18853;45.426;9.206;2023-04-30T14:34:38;25.60;47.70
32394;DHT22;18853;45.426;9.206;2023-04-30T14:37:04;25.60;47.00
32394;DHT22;18853;45.426;9.206;2023-04-30T14:39:30;25.70;46.80
32394;DHT22;18853;45.426;9.206;2023-04-30T14:41:56;25.70;46.80
32394;DHT22;18853;45.426;9.206;2023-04-30T14:44:22;25.80;46.70
32394;DHT22;18853;45.426;9.206;2023-04-30T14:46:50;25.80;46.30
32394;DHT22;18853;45.426;9.206;2023-04-30T14:49:15;25.70;46.00
32394;DHT22;18853;45.426;9.206;2023-04-30T14:51:41;25.70;46.10
32394;DHT22;18853;45.426;9.206;2023-04-30T14:54:08;25.60;46.10
32394;DHT22;18853;45.426;9.206;2023-04-30T14:56:33;25.60;46.30
32394;DHT22;18853;45.426;9.206;2023-04-30T14:58:59;25.60;46.40
32394;DHT22;18853;45.426;9.206;2023-04-30T15:01:25;25.60;46.40
32394;DHT22;18853;45.426;9.206;2023-04-30T15:03:50;25.60;46.40
32394;DHT22;18853;45.426;9.206;2023-04-30T15:06:17;25.70;45.80
32394;DHT22;18853;45.426;9.206;2023-04-30T15:08:43;25.70;45.40
32394;DHT22;18853;45.426;9.206;2023-04-30T15:11:09;25.80;46.00
32394;DHT22;18853;45.426;9.206;2023-04-30T15:13:38;25.70;45.40
32394;DHT22;18853;45.426;9.206;2023-04-30T15:16:04;25.70;45.60
32394;DHT22;18853;45.426;9.206;2023-04-30T15:18:31;25.60;45.70
32394;DHT22;18853;45.426;9.206;2023-04-30T15:20:57;25.60;45.60
32394;DHT22;18853;45.426;9.206;2023-04-30T15:23:23;25.50;45.70
32394;DHT22;18853;45.426;9.206;2023-04-30T15:25:49;25.50;45.90
32394;DHT22;18853;45.426;9.206;2023-04-30T15:28:14;25.50;45.90
32394;DHT22;18853;45.426;9.206;2023-04-30T15:30:41;25.40;45.90
32394;DHT22;18853;45.426;9.206;2023-04-30T15:33:07;25.40;45.80
32394;DHT22;18853;45.426;9.206;2023-04-30T15:35:33;25.40;45.90
32394;DHT22;18853;45.426;9.206;2023-04-30T15:37:59;25.50;46.00
32394;DHT22;18853;45.426;9.206;2023-04-30T15:40:24;25.50;46.30
32394;DHT22;18853;45.426;9.206;2023-04-30T15:42:50;25.50;46.10
32394;DHT22;18853;45.426;9.206;2023-04-30T15:45:16;25.50;46.00
32394;DHT22;18853;45.426;9.206;2023-04-30T15:47:42;25.50;46.00
32394;DHT22;18853;45.426;9.206;2023-04-30T15:50:08;25.50;45.80
32394;DHT22;18853;45.426;9.206;2023-04-30T15:52:33;25.50;45.70
32394;DHT22;18853;45.426;9.206;2023-04-30T15:54:59;25.40;45.70
32394;DHT22;18853;45.426;9.206;2023-04-30T15:57:25;25.40;45.60
32394;DHT22;18853;45.426;9.206;2023-04-30T15:59:51;25.30;45.30